Time;durP1;ratioP1;P1;durP2;ratioP2;P2;SDS_P1;SDS_P2;PMS_P1;PMS_P2;Temp;Humidity;BMP_temperature;BMP_pressure;BME280_temperature;BME280_humidity;BME280_pressure;Samples;Min_cycle;Max_cycle;Signal;HPM_P1;HPM_P2
2022/10/04 00:00:26;;;;;;;22.42;13.70;;;6.90;99.90;;;;;;5038548;28;20025;-69
2022/10/04 00:02:58;;;;;;;25.25;15.45;;;6.90;99.90;;;;;;5039869;28;20087;-70
2022/10/04 00:05:24;;;;;;;25.02;14.65;;;6.90;99.90;;;;;;5036977;28;20029;-69
2022/10/04 00:07:54;;;;;;;24.83;14.20;;;6.90;99.90;;;;;;5036787;28;20178;-69
2022/10/04 00:10:38;;;;;;;;;;;6.90;99.90;;;;;;5041475;28;20026;-69
2022/10/04 00:13:14;;;;;;;21.80;13.55;;;6.80;99.90;;;;;;5038575;28;19936;-69
2022/10/04 00:15:39;;;;;;;24.33;14.57;;;6.80;99.90;;;;;;5035576;28;20018;-69
2022/10/04 00:18:11;;;;;;;22.67;14.48;;;6.70;99.90;;;;;;5042863;28;20027;-69
2022/10/04 00:20:49;;;;;;;21.88;13.63;;;6.70;99.90;;;;;;5038996;28;20033;-68
2022/10/04 00:23:24;;;;;;;21.48;13.95;;;6.70;99.90;;;;;;5039372;28;20055;-69
2022/10/04 00:25:57;;;;;;;28.00;16.25;;;6.70;99.90;;;;;;5037657;28;20021;-70
2022/10/04 00:28:23;;;;;;;22.10;14.85;;;6.70;99.90;;;;;;5038384;28;20025;-69
2022/10/04 00:31:13;;;;;;;24.00;14.20;;;6.60;99.90;;;;;;5040216;28;20043;-69
2022/10/04 00:33:50;;;;;;;26.25;15.52;;;6.70;99.90;;;;;;5036871;28;20032;-69
2022/10/04 00:36:27;;;;;;;28.27;15.77;;;6.60;99.90;;;;;;5038729;28;20033;-68
2022/10/04 00:39:08;;;;;;;23.85;16.00;;;6.60;99.90;;;;;;5036156;28;20037;-68
2022/10/04 00:41:45;;;;;;;25.15;15.43;;;6.60;99.90;;;;;;5022998;28;20040;-68
2022/10/04 00:44:25;;;;;;;28.27;16.45;;;6.60;99.90;;;;;;5038753;28;20071;-70
2022/10/04 00:46:51;;;;;;;24.98;14.90;;;6.60;99.90;;;;;;5037648;28;20101;-68
2022/10/04 00:49:21;;;;;;;25.70;14.95;;;6.60;99.90;;;;;;5037846;28;20087;-68
2022/10/04 00:52:21;;;;;;;22.80;13.95;;;6.50;99.90;;;;;;5040288;28;20021;-69
2022/10/04 00:54:52;;;;;;;28.52;16.38;;;6.50;99.90;;;;;;5039802;28;20037;-68
2022/10/04 00:57:39;;;;;;;28.88;15.70;;;6.50;99.90;;;;;;5038285;28;20017;-69
2022/10/04 01:00:11;;;;;;;29.55;15.40;;;6.50;99.90;;;;;;5039366;28;20028;-69
2022/10/04 01:02:55;;;;;;;20.45;13.88;;;6.40;99.90;;;;;;5041621;28;20029;-68
2022/10/04 01:05:20;;;;;;;22.15;13.77;;;6.40;99.90;;;;;;5035763;28;20467;-69
2022/10/04 01:08:06;;;;;;;21.08;13.57;;;6.30;99.90;;;;;;5036888;28;20033;-69
2022/10/04 01:10:36;;;;;;;25.92;15.60;;;6.20;99.90;;;;;;5037809;28;20030;-68
2022/10/04 01:13:20;;;;;;;29.52;17.17;;;6.20;99.90;;;;;;5039199;28;20182;-69
2022/10/04 01:16:23;;;;;;;25.52;15.00;;;6.20;99.90;;;;;;5037727;28;20087;-69
2022/10/04 01:18:48;;;;;;;26.77;16.08;;;6.20;99.90;;;;;;5024779;28;20041;-69
2022/10/04 01:21:20;;;;;;;22.52;14.50;;;6.20;99.90;;;;;;5038359;28;20039;-69
2022/10/04 01:23:48;;;;;;;27.55;15.95;;;6.20;99.90;;;;;;5040178;28;20021;-69
2022/10/04 01:26:28;;;;;;;24.75;15.10;;;6.20;99.90;;;;;;5040306;28;20025;-69
2022/10/04 01:28:58;;;;;;;24.50;14.10;;;6.10;99.90;;;;;;5022498;28;20025;-69
2022/10/04 01:31:25;;;;;;;22.52;14.20;;;6.10;99.90;;;;;;5039169;28;20036;-69
2022/10/04 01:33:52;;;;;;;23.10;14.63;;;6.10;99.90;;;;;;5033218;28;20093;-69
2022/10/04 01:36:19;;;;;;;25.30;16.42;;;6.10;99.90;;;;;;5036194;28;20040;-69
2022/10/04 01:38:45;;;;;;;25.65;16.27;;;6.00;99.90;;;;;;5039057;28;20076;-69
2022/10/04 01:41:13;;;;;;;26.23;16.13;;;6.10;99.90;;;;;;5038227;28;20116;-69
2022/10/04 01:43:42;;;;;;;22.05;15.02;;;6.00;99.90;;;;;;5037014;28;20042;-70
2022/10/04 01:46:21;;;;;;;31.45;17.88;;;6.00;99.90;;;;;;5038770;28;20488;-69
2022/10/04 01:48:47;;;;;;;25.35;16.05;;;6.00;99.90;;;;;;5037666;28;20041;-69
2022/10/04 01:51:22;;;;;;;25.20;15.95;;;6.00;99.90;;;;;;5038179;28;20036;-69
2022/10/04 01:54:09;;;;;;;25.27;15.20;;;6.00;99.90;;;;;;5038530;28;20060;-69
2022/10/04 01:56:51;;;;;;;22.02;15.55;;;6.00;99.90;;;;;;5037687;28;20044;-69
2022/10/04 01:59:28;;;;;;;23.40;15.15;;;6.00;99.90;;;;;;5042406;28;20148;-69
2022/10/04 02:02:09;;;;;;;28.45;15.85;;;5.90;99.90;;;;;;5040063;28;20029;-69
2022/10/04 02:04:38;;;;;;;36.70;17.98;;;5.90;99.90;;;;;;5039987;28;20584;-69
2022/10/04 02:07:12;;;;;;;25.25;15.57;;;5.90;99.90;;;;;;5036491;28;20029;-69
2022/10/04 02:09:42;;;;;;;23.35;16.13;;;5.90;99.90;;;;;;5040060;28;20032;-69
2022/10/04 02:12:08;;;;;;;;;;;5.80;99.90;;;;;;5043191;28;20034;-69
2022/10/04 02:14:38;;;;;;;28.30;16.92;;;5.80;99.90;;;;;;5039045;28;20638;-69
2022/10/04 02:17:09;;;;;;;28.10;15.43;;;5.80;99.90;;;;;;5043342;28;20168;-70
2022/10/04 02:19:37;;;;;;;24.98;15.50;;;5.70;99.90;;;;;;5040207;28;20344;-69
2022/10/04 02:22:04;;;;;;;27.85;17.17;;;5.70;99.90;;;;;;5042635;28;20382;-69
2022/10/04 02:24:37;;;;;;;30.52;17.50;;;5.70;99.90;;;;;;5042005;28;20033;-67
2022/10/04 02:27:03;;;;;;;28.98;17.10;;;5.70;99.90;;;;;;5039062;28;20024;-70
2022/10/04 02:29:28;;;;;;;29.92;18.52;;;5.70;99.90;;;;;;5037508;28;20018;-68
2022/10/04 02:34:39;;;;;;;28.10;17.40;;;5.70;99.90;;;;;;5041867;28;20037;-69
2022/10/04 02:37:06;;;;;;;25.17;16.60;;;5.80;99.90;;;;;;5041245;28;20029;-69
2022/10/04 02:39:46;;;;;;;30.67;17.98;;;5.80;99.90;;;;;;5040871;28;20033;-68
2022/10/04 02:42:20;;;;;;;26.38;15.75;;;5.80;99.90;;;;;;5044891;28;20394;-69
2022/10/04 02:45:11;;;;;;;26.30;16.95;;;5.80;99.90;;;;;;5041049;28;20052;-70
2022/10/04 02:47:49;;;;;;;27.05;16.83;;;5.80;99.90;;;;;;5030599;28;20029;-68
2022/10/04 02:50:34;;;;;;;24.20;14.80;;;5.80;99.90;;;;;;5038471;28;20033;-68
2022/10/04 02:53:31;;;;;;;24.40;15.00;;;5.70;99.90;;;;;;5043941;28;20025;-70
2022/10/04 02:55:57;;;;;;;28.75;17.00;;;5.70;99.90;;;;;;5042814;28;20021;-69
2022/10/04 02:58:25;;;;;;;20.65;14.80;;;5.70;99.90;;;;;;5042211;28;20494;-70
2022/10/04 03:00:58;;;;;;;22.80;15.07;;;5.60;99.90;;;;;;5040509;28;20109;-68
2022/10/04 03:03:27;;;;;;;30.38;17.23;;;5.60;99.90;;;;;;5039492;28;20664;-69
2022/10/04 03:06:07;;;;;;;31.92;17.20;;;5.60;99.90;;;;;;5040042;28;20851;-69
2022/10/04 03:08:49;;;;;;;32.92;17.48;;;5.60;99.90;;;;;;5041007;28;20418;-68
2022/10/04 03:11:16;;;;;;;27.45;17.63;;;5.60;99.90;;;;;;5038204;28;20032;-69
2022/10/04 03:13:48;;;;;;;27.10;15.55;;;5.60;99.90;;;;;;5040642;28;20021;-70
2022/10/04 03:16:15;;;;;;;32.05;17.50;;;5.60;99.90;;;;;;5037689;28;20533;-68
2022/10/04 03:18:43;;;;;;;27.23;16.17;;;5.60;99.90;;;;;;5042980;28;20048;-68
2022/10/04 03:21:12;;;;;;;27.63;16.63;;;5.60;99.90;;;;;;5051234;28;20033;-69
2022/10/04 03:23:39;;;;;;;22.83;15.07;;;5.60;99.90;;;;;;5052372;28;20055;-69
2022/10/04 03:26:23;;;;;;;24.75;15.73;;;5.50;99.90;;;;;;5052315;28;20041;-69
2022/10/04 03:28:49;;;;;;;25.73;15.27;;;5.50;99.90;;;;;;5050738;28;20039;-69
2022/10/04 03:31:15;;;;;;;32.38;17.58;;;5.50;99.90;;;;;;5046760;28;20048;-68
2022/10/04 03:33:43;;;;;;;26.55;16.23;;;5.60;99.90;;;;;;5038941;28;20033;-69
2022/10/04 03:36:12;;;;;;;28.60;16.55;;;5.60;99.90;;;;;;5032093;28;20076;-69
2022/10/04 03:38:39;;;;;;;28.98;15.95;;;5.60;99.90;;;;;;5031835;28;20036;-68
2022/10/04 03:41:05;;;;;;;27.63;15.68;;;5.60;99.90;;;;;;5038102;28;20076;-68
2022/10/04 03:43:36;;;;;;;28.98;16.15;;;5.60;99.90;;;;;;5045651;28;20053;-67
2022/10/04 03:46:04;;;;;;;27.73;14.85;;;5.60;99.90;;;;;;5042274;28;20545;-69
2022/10/04 03:48:49;;;;;;;23.08;14.55;;;5.60;99.90;;;;;;5045638;28;20040;-70
2022/10/04 03:51:26;;;;;;;19.30;13.82;;;5.60;99.90;;;;;;5039800;28;20171;-69
2022/10/04 03:53:58;;;;;;;21.20;14.07;;;5.50;99.90;;;;;;5046956;28;20068;-70
2022/10/04 03:56:34;;;;;;;23.23;14.73;;;5.40;99.90;;;;;;5040375;28;20466;-70
2022/10/04 03:59:03;;;;;;;25.50;16.27;;;5.50;99.90;;;;;;5031699;28;20026;-70
2022/10/04 04:01:43;;;;;;;28.03;15.30;;;5.50;99.90;;;;;;5016638;28;20120;-70
2022/10/04 04:04:32;;;;;;;27.33;15.68;;;5.50;99.90;;;;;;5051448;28;20792;-69
2022/10/04 04:07:07;;;;;;;27.52;15.85;;;5.50;99.90;;;;;;5051344;28;20068;-70
2022/10/04 04:09:41;;;;;;;31.30;16.77;;;5.50;99.90;;;;;;5050634;28;20036;-69
2022/10/04 04:12:13;;;;;;;20.83;14.38;;;5.50;99.90;;;;;;5051889;28;20505;-70
2022/10/04 04:14:41;;;;;;;24.20;14.77;;;5.60;99.90;;;;;;5050332;28;20025;-70
2022/10/04 04:17:26;;;;;;;22.80;13.48;;;5.50;99.90;;;;;;5051948;28;20017;-70
2022/10/04 04:19:53;;;;;;;23.88;14.00;;;5.50;99.90;;;;;;5046814;28;20422;-71
2022/10/04 04:22:19;;;;;;;27.92;16.02;;;5.50;99.90;;;;;;5052018;28;20033;-70
2022/10/04 04:24:46;;;;;;;26.58;15.23;;;5.50;99.90;;;;;;5050210;28;20111;-69
2022/10/04 04:27:15;;;;;;;20.75;13.85;;;5.60;99.90;;;;;;5051486;28;20029;-69
2022/10/04 04:29:50;;;;;;;23.77;13.95;;;5.60;99.90;;;;;;5049720;28;20087;-70
2022/10/04 04:32:40;;;;;;;20.33;13.75;;;5.50;99.90;;;;;;5037013;28;20037;-69
2022/10/04 04:35:20;;;;;;;29.08;15.77;;;5.50;99.90;;;;;;5031010;28;20026;-70
2022/10/04 04:38:19;;;;;;;26.58;15.18;;;5.50;99.90;;;;;;5032795;28;20034;-68
2022/10/04 04:40:45;;;;;;;26.42;15.15;;;5.50;99.90;;;;;;5030616;28;20105;-69
2022/10/04 04:43:18;;;;;;;22.67;14.85;;;5.50;99.90;;;;;;5031725;28;20124;-69
2022/10/04 04:45:44;;;;;;;28.10;16.27;;;5.50;99.90;;;;;;5030053;28;20111;-69
2022/10/04 04:48:13;;;;;;;26.15;15.18;;;5.50;99.90;;;;;;5034213;28;20037;-70
2022/10/04 04:50:40;;;;;;;32.60;15.85;;;5.50;99.90;;;;;;5047753;28;20040;-68
2022/10/04 04:53:16;;;;;;;25.85;15.00;;;5.50;99.90;;;;;;5042331;28;20493;-69
2022/10/04 04:55:56;;;;;;;30.98;15.57;;;5.50;99.90;;;;;;5033370;28;20021;-68
2022/10/04 04:58:31;;;;;;;31.27;17.42;;;5.40;99.90;;;;;;5039710;28;20466;-70
2022/10/04 05:01:02;;;;;;;28.70;15.65;;;5.50;99.90;;;;;;5049638;28;20075;-70
2022/10/04 05:03:29;;;;;;;25.25;14.23;;;5.40;99.90;;;;;;5051438;28;20113;-70
2022/10/04 05:05:57;;;;;;;25.15;15.40;;;5.40;99.90;;;;;;5045077;28;20033;-70
2022/10/04 05:08:27;;;;;;;23.33;14.73;;;5.40;99.90;;;;;;5048719;28;20082;-70
2022/10/04 05:10:56;;;;;;;;;;;5.40;99.90;;;;;;5037455;28;20087;-70
2022/10/04 05:13:27;;;;;;;23.52;14.65;;;5.30;99.90;;;;;;5041522;28;19913;-69
2022/10/04 05:15:56;;;;;;;28.35;16.27;;;5.40;99.90;;;;;;5030609;28;20416;-69
2022/10/04 05:18:30;;;;;;;33.95;16.98;;;5.30;99.90;;;;;;5049078;28;20057;-69
2022/10/04 05:21:18;;;;;;;23.70;15.00;;;5.30;99.90;;;;;;5050266;28;20086;-70
2022/10/04 05:23:44;;;;;;;26.70;15.68;;;5.30;99.90;;;;;;5036158;28;20048;-69
2022/10/04 05:26:11;;;;;;;26.35;16.13;;;5.30;99.90;;;;;;5045472;28;20095;-69
2022/10/04 05:28:37;;;;;;;31.05;18.83;;;5.20;99.90;;;;;;5043196;28;20033;-69
2022/10/04 05:31:37;;;;;;;34.42;17.85;;;5.20;99.90;;;;;;5046142;28;20108;-69
2022/10/04 05:34:16;;;;;;;23.80;15.85;;;5.20;99.90;;;;;;5034932;28;20088;-69
2022/10/04 05:36:50;;;;;;;26.02;16.05;;;5.20;99.90;;;;;;5036848;28;20120;-69
2022/10/04 05:39:22;;;;;;;30.38;16.45;;;5.30;99.90;;;;;;5045973;28;20022;-70
2022/10/04 05:42:06;;;;;;;26.55;15.23;;;5.40;99.90;;;;;;5049298;28;20029;-70
2022/10/04 05:44:36;;;;;;;24.02;15.23;;;5.30;99.90;;;;;;5049216;28;20494;-70
2022/10/04 05:47:06;;;;;;;26.58;14.90;;;5.40;99.90;;;;;;5049352;28;20033;-69
2022/10/04 05:49:45;;;;;;;26.33;15.05;;;5.40;99.90;;;;;;5053030;28;20063;-73
2022/10/04 05:52:24;;;;;;;30.48;16.92;;;5.50;99.90;;;;;;5051599;28;20120;-72
2022/10/04 05:55:31;;;;;;;28.17;16.60;;;5.70;99.90;;;;;;5054222;28;20096;-75
2022/10/04 05:58:21;;;;;;;29.35;15.05;;;5.90;99.90;;;;;;5038430;28;20029;-72
2022/10/04 06:01:09;;;;;;;;;;;6.20;99.90;;;;;;5041521;28;20029;-72
2022/10/04 06:04:00;;;;;;;25.33;14.10;;;6.30;99.90;;;;;;5042151;28;19904;-73
2022/10/04 06:06:30;;;;;;;25.02;13.20;;;6.40;99.90;;;;;;5046006;28;20156;-73
2022/10/04 06:09:45;;;;;;;17.17;11.23;;;6.40;99.90;;;;;;5054965;28;20055;-75
2022/10/04 06:12:36;;;;;;;20.48;13.68;;;6.50;99.90;;;;;;5045722;28;20061;-73
2022/10/04 06:15:02;;;;;;;;;;;6.50;99.90;;;;;;5048704;28;20036;-73
2022/10/04 06:17:55;;;;;;;17.08;11.02;;;6.50;99.90;;;;;;5054505;28;19905;-71
2022/10/04 06:20:59;;;;;;;19.73;11.82;;;6.60;99.90;;;;;;5033949;28;20031;-70
2022/10/04 06:23:27;;;;;;;20.75;13.75;;;6.60;99.90;;;;;;5033635;28;20044;-71
2022/10/04 06:25:59;;;;;;;17.55;12.05;;;6.70;99.90;;;;;;5037163;28;20045;-71
2022/10/04 06:28:34;;;;;;;18.25;12.07;;;6.70;99.90;;;;;;5048871;28;20028;-70
2022/10/04 06:31:12;;;;;;;18.30;12.13;;;6.80;99.90;;;;;;5052225;28;20035;-72
2022/10/04 06:33:58;;;;;;;19.40;11.18;;;6.90;99.90;;;;;;5051779;28;20025;-69
2022/10/04 06:36:30;;;;;;;16.00;10.38;;;6.90;99.90;;;;;;5045089;28;20079;-70
2022/10/04 06:39:07;;;;;;;20.58;12.38;;;6.90;99.90;;;;;;5049192;28;20064;-70
2022/10/04 06:41:52;;;;;;;16.30;10.90;;;7.00;99.90;;;;;;5046180;28;20382;-72
2022/10/04 06:44:35;;;;;;;21.80;10.73;;;7.10;99.90;;;;;;5032991;28;20056;-71
2022/10/04 06:47:26;;;;;;;14.27;10.05;;;7.30;99.90;;;;;;5054001;28;20036;-72
2022/10/04 06:50:18;;;;;;;13.90;9.23;;;7.40;99.90;;;;;;5056453;28;20465;-70
2022/10/04 06:53:05;;;;;;;14.27;10.15;;;7.50;99.90;;;;;;5041191;28;20076;-70
2022/10/04 06:55:45;;;;;;;17.13;9.80;;;7.50;99.90;;;;;;5049642;28;20090;-72
2022/10/04 06:58:49;;;;;;;18.00;9.63;;;7.60;99.90;;;;;;5046561;28;20072;-71
2022/10/04 07:01:28;;;;;;;16.23;9.57;;;7.60;99.90;;;;;;5045453;28;20049;-71
2022/10/04 07:03:53;;;;;;;14.60;9.50;;;7.70;99.90;;;;;;5031663;28;20040;-73
2022/10/04 07:06:31;;;;;;;12.23;8.88;;;7.90;99.90;;;;;;5042385;28;20063;-72
2022/10/04 07:09:01;;;;;;;13.25;9.27;;;7.90;99.90;;;;;;5034406;28;20025;-71
2022/10/04 07:11:45;;;;;;;;;;;8.00;99.90;;;;;;5047040;28;20037;-71
2022/10/04 07:14:20;;;;;;;13.30;9.13;;;8.00;99.90;;;;;;5046383;28;19949;-71
2022/10/04 07:17:00;;;;;;;13.07;8.93;;;8.10;99.90;;;;;;5051073;28;20029;-72
2022/10/04 07:19:48;;;;;;;16.58;8.95;;;8.20;99.90;;;;;;5037420;28;20453;-72
2022/10/04 07:22:24;;;;;;;11.10;8.27;;;8.20;99.90;;;;;;5051344;28;20078;-73
2022/10/04 07:24:50;;;;;;;13.48;9.07;;;8.30;99.90;;;;;;5036117;28;20036;-71
2022/10/04 07:27:21;;;;;;;11.85;8.07;;;8.40;99.90;;;;;;5044104;28;20379;-70
2022/10/04 07:29:53;;;;;;;10.85;8.98;;;8.40;99.90;;;;;;5041240;28;20087;-72
2022/10/04 07:32:25;;;;;;;9.77;7.63;;;8.60;99.90;;;;;;5034832;28;20033;-71
2022/10/04 07:34:58;;;;;;;12.18;8.88;;;8.60;99.90;;;;;;5047881;28;20123;-71
2022/10/04 07:37:28;;;;;;;11.43;8.32;;;8.60;99.90;;;;;;5042400;28;20036;-69
2022/10/04 07:40:08;;;;;;;12.27;8.77;;;8.70;99.90;;;;;;5039232;28;20032;-69
2022/10/04 07:42:51;;;;;;;11.75;8.20;;;8.70;99.90;;;;;;5023719;28;20291;-71
2022/10/04 07:45:43;;;;;;;11.48;8.65;;;8.80;99.90;;;;;;5050156;28;20033;-71
2022/10/04 07:48:18;;;;;;;14.10;7.90;;;8.90;99.90;;;;;;5037310;28;20047;-72
2022/10/04 07:51:03;;;;;;;15.73;8.43;;;8.90;99.90;;;;;;5044095;28;20036;-70
2022/10/04 07:54:01;;;;;;;11.30;7.22;;;9.00;99.90;;;;;;5039920;28;20033;-71
2022/10/04 07:56:54;;;;;;;9.93;7.43;;;9.10;99.90;;;;;;5045544;28;20121;-70
2022/10/04 07:59:56;;;;;;;12.40;7.35;;;9.10;99.90;;;;;;5039026;28;20033;-70
2022/10/04 08:02:37;;;;;;;13.00;7.32;;;9.20;99.90;;;;;;5035155;28;20112;-72
2022/10/04 08:05:18;;;;;;;10.80;7.40;;;9.20;99.90;;;;;;5041630;28;20728;-70
2022/10/04 08:08:02;;;;;;;9.75;6.88;;;9.30;99.90;;;;;;5033178;28;20497;-68
2022/10/04 08:10:46;;;;;;;10.63;7.68;;;9.50;99.90;;;;;;5046536;28;20516;-71
2022/10/04 08:13:20;;;;;;;13.55;7.85;;;9.60;99.90;;;;;;5035963;28;20076;-70
2022/10/04 08:15:46;;;;;;;11.23;7.50;;;9.70;99.90;;;;;;5043464;28;20049;-70
2022/10/04 08:18:36;;;;;;;13.38;7.45;;;9.90;99.90;;;;;;5040956;28;20064;-69
2022/10/04 08:21:08;;;;;;;7.07;6.32;;;10.10;99.90;;;;;;5025375;28;20168;-71
2022/10/04 08:24:01;;;;;;;8.88;5.95;;;10.30;99.90;;;;;;5049454;28;20479;-70
2022/10/04 08:26:44;;;;;;;7.60;6.43;;;10.40;99.90;;;;;;5037102;28;20032;-71
2022/10/04 08:29:43;;;;;;;7.35;5.32;;;10.40;99.90;;;;;;5043280;28;20083;-70
2022/10/04 08:32:28;;;;;;;6.72;5.43;;;10.40;99.90;;;;;;5034295;28;20043;-71
2022/10/04 08:35:26;;;;;;;11.40;6.40;;;10.40;99.90;;;;;;5042414;28;20046;-69
2022/10/04 08:38:17;;;;;;;8.13;6.22;;;10.50;99.90;;;;;;5037082;28;20025;-70
2022/10/04 08:41:19;;;;;;;10.43;7.28;;;10.60;99.90;;;;;;5041443;28;20041;-70
2022/10/04 08:44:16;;;;;;;13.63;7.40;;;10.80;99.90;;;;;;5038111;28;20052;-71
2022/10/04 08:46:51;;;;;;;10.50;6.90;;;10.90;99.90;;;;;;5033969;28;20026;-70
2022/10/04 08:49:29;;;;;;;13.40;6.93;;;11.00;99.90;;;;;;5033096;28;20060;-71
2022/10/04 08:52:20;;;;;;;10.27;6.75;;;11.00;99.90;;;;;;5037042;28;21247;-70
2022/10/04 08:55:19;;;;;;;15.40;7.55;;;11.10;99.90;;;;;;5017818;28;20499;-71
2022/10/04 08:58:10;;;;;;;10.73;6.55;;;11.20;99.90;;;;;;5019576;28;20024;-70
2022/10/04 09:00:38;;;;;;;;;;;11.30;99.90;;;;;;5036379;28;20515;-71
2022/10/04 09:03:25;;;;;;;10.25;5.95;;;11.20;99.90;;;;;;5034965;28;20565;-70
2022/10/04 09:06:07;;;;;;;9.45;5.70;;;11.30;99.90;;;;;;5045175;28;20035;-70
2022/10/04 09:08:57;;;;;;;6.95;5.63;;;11.30;99.90;;;;;;5050083;28;20103;-70
2022/10/04 09:11:50;;;;;;;10.32;6.05;;;11.30;99.90;;;;;;5048332;28;20037;-71
2022/10/04 09:14:39;;;;;;;10.15;6.60;;;11.40;99.90;;;;;;5050061;28;20473;-70
2022/10/04 09:17:45;;;;;;;12.07;6.70;;;11.60;99.90;;;;;;5040951;28;20024;-71
2022/10/04 09:20:32;;;;;;;14.02;6.22;;;11.70;99.90;;;;;;5043399;28;20106;-71
2022/10/04 09:23:40;;;;;;;9.32;6.07;;;11.90;99.90;;;;;;5041790;28;20025;-72
2022/10/04 09:26:18;;;;;;;10.10;6.00;;;12.00;99.90;;;;;;4983072;28;20033;-70
2022/10/04 09:29:03;;;;;;;8.15;5.10;;;12.30;99.90;;;;;;5036707;28;20073;-69
2022/10/04 09:31:28;;;;;;;6.18;4.65;;;12.50;99.90;;;;;;5041974;28;20029;-70
2022/10/04 09:34:24;;;;;;;8.38;4.53;;;12.80;99.90;;;;;;5041279;28;20025;-70
2022/10/04 09:37:47;;;;;;;8.48;4.72;;;13.00;99.90;;;;;;5037859;28;20470;-71
2022/10/04 09:40:37;;;;;;;12.80;3.95;;;13.30;99.90;;;;;;4968710;28;20031;-70
2022/10/04 09:43:27;;;;;;;5.53;2.80;;;13.60;99.90;;;;;;4972019;28;20190;-70
2022/10/04 09:46:16;;;;;;;4.60;2.47;;;13.90;99.90;;;;;;5021428;28;20119;-69
2022/10/04 09:49:17;;;;;;;7.33;2.67;;;14.20;99.90;;;;;;5039851;28;20044;-70
2022/10/04 09:52:03;;;;;;;;;;;14.40;99.90;;;;;;5038482;28;20280;-70
2022/10/04 09:54:36;;;;;;;5.38;2.03;;;14.60;99.90;;;;;;5038450;28;19913;-70
2022/10/04 09:57:14;;;;;;;5.97;2.67;;;14.70;99.90;;;;;;5038625;28;20021;-71
2022/10/04 09:59:56;;;;;;;6.28;2.15;;;14.80;99.90;;;;;;5040854;28;20112;-70
2022/10/04 10:02:53;;;;;;;5.25;1.98;;;14.90;99.90;;;;;;5042844;28;20371;-70
2022/10/04 10:05:45;;;;;;;8.52;2.25;;;15.00;99.90;;;;;;5040182;28;20431;-70
2022/10/04 10:08:35;;;;;;;4.57;2.42;;;15.20;99.90;;;;;;5034914;28;20030;-70
2022/10/04 10:14:55;;;;;;;5.38;1.98;;;15.40;99.90;;;;;;5039500;28;20090;-69
2022/10/04 10:17:27;;;;;;;7.97;2.70;;;;;;;;;;5052014;28;20017;-69
2022/10/04 10:19:53;;;;;;;7.40;2.55;;;;;;;;;;5046467;28;20079;-69
2022/10/04 10:22:19;;;;;;;4.97;2.13;;;;;;;;;;5041309;28;20481;-70
2022/10/04 10:24:45;;;;;;;8.50;2.55;;;;;;;;;;5043384;28;20072;-69
2022/10/04 10:27:23;;;;;;;5.38;1.92;;;;;;;;;;5032984;28;20025;-69
2022/10/04 10:30:04;;;;;;;6.30;2.13;;;;;;;;;;5032714;28;20109;-68
2022/10/04 10:32:38;;;;;;;8.20;2.88;;;;;;;;;;5033442;28;20509;-70
2022/10/04 10:35:23;;;;;;;7.07;2.63;;;;;;;;;;5032130;28;20048;-69
2022/10/04 10:37:49;;;;;;;4.65;2.10;;;;;;;;;;5016468;28;20026;-68
2022/10/04 10:40:15;;;;;;;3.38;2.17;;;;;;;;;;5036057;28;20030;-70
2022/10/04 10:42:57;;;;;;;6.35;2.47;;;;;;;;;;5033468;28;20031;-70
2022/10/04 10:45:39;;;;;;;3.05;1.73;;;;;;;;;;5040009;28;20041;-68
2022/10/04 10:48:19;;;;;;;5.40;2.17;;;;;;;;;;5044702;28;20362;-69
2022/10/04 10:50:57;;;;;;;3.85;2.13;;;;;;;;;;5038841;28;20029;-70
2022/10/04 10:53:44;;;;;;;4.88;2.20;;;;;;;;;;5045754;28;20120;-70
2022/10/04 10:56:12;;;;;;;4.38;1.98;;;;;;;;;;5036837;28;20168;-70
2022/10/04 10:58:57;;;;;;;8.98;2.22;;;;;;;;;;5048637;28;20074;-70
2022/10/04 11:01:25;;;;;;;3.80;2.17;;;;;;;;;;5037927;28;20383;-71
2022/10/04 11:04:03;;;;;;;3.78;2.13;;;17.40;99.90;;;;;;5041448;28;20047;-71
2022/10/04 11:06:53;;;;;;;8.43;2.83;;;17.30;99.90;;;;;;5040773;28;20021;-68
2022/10/04 11:10:04;;;;;;;3.85;2.20;;;17.20;99.90;;;;;;5034593;28;20033;-70
2022/10/04 11:12:54;;;;;;;4.55;2.42;;;17.20;99.90;;;;;;5020171;28;20034;-70
2022/10/04 11:15:41;;;;;;;4.53;2.00;;;17.40;99.90;;;;;;5042675;28;20030;-70
2022/10/04 11:18:44;;;;;;;5.05;2.42;;;17.60;99.90;;;;;;5037852;28;20612;-68
2022/10/04 11:21:37;;;;;;;9.85;2.20;;;17.80;99.90;;;;;;5036543;28;20052;-70
2022/10/04 11:24:44;;;;;;;5.80;2.10;;;17.90;99.90;;;;;;5044801;28;20031;-70
2022/10/04 11:27:31;;;;;;;5.63;2.75;;;18.10;99.90;;;;;;5027965;28;20036;-70
2022/10/04 11:30:23;;;;;;;9.38;2.35;;;18.20;99.90;;;;;;5049412;28;20032;-70
2022/10/04 11:33:49;;;;;;;4.13;2.20;;;18.30;99.90;;;;;;5051581;28;20044;-68
2022/10/04 11:36:41;;;;;;;6.00;2.95;;;18.50;99.90;;;;;;4978075;28;20033;-70
2022/10/04 11:39:24;;;;;;;6.55;2.78;;;18.70;99.90;;;;;;4975760;28;20041;-69
2022/10/04 11:42:03;;;;;;;3.05;1.83;;;19.00;99.90;;;;;;4989014;28;20042;-69
2022/10/04 11:44:58;;;;;;;6.90;2.15;;;19.40;99.90;;;;;;4971218;28;20074;-70
2022/10/04 11:47:54;;;;;;;3.60;2.00;;;19.70;99.90;;;;;;4964303;28;20377;-69
2022/10/04 11:50:56;;;;;;;3.30;1.90;;;20.10;99.90;;;;;;4969313;28;20035;-70
2022/10/04 11:54:02;;;;;;;4.55;2.03;;;20.40;99.90;;;;;;4961720;28;20047;-70
2022/10/04 11:56:42;;;;;;;4.50;1.98;;;20.60;99.90;;;;;;4953958;28;20038;-70
2022/10/04 11:59:33;;;;;;;3.20;1.80;;;21.00;98.90;;;;;;4963234;28;20069;-70
2022/10/04 12:02:17;;;;;;;;;;;21.20;99.00;;;;;;4959458;28;20034;-70
2022/10/04 12:05:04;;;;;;;4.45;2.25;;;21.30;98.80;;;;;;4962352;28;19906;-71
2022/10/04 12:07:33;;;;;;;4.97;2.00;;;21.60;98.30;;;;;;4989430;28;20526;-71
2022/10/04 12:10:18;;;;;;;2.72;1.95;;;21.80;97.20;;;;;;4994334;28;20034;-70
2022/10/04 12:12:53;;;;;;;4.28;2.17;;;21.80;97.20;;;;;;5003639;28;20352;-70
2022/10/04 12:15:26;;;;;;;2.83;1.50;;;22.20;96.90;;;;;;4996784;28;20483;-70
2022/10/04 12:18:31;;;;;;;3.20;1.88;;;22.50;96.20;;;;;;5003528;28;20071;-70
2022/10/04 12:21:19;;;;;;;4.18;2.10;;;22.50;95.60;;;;;;4992607;28;20041;-69
2022/10/04 12:24:03;;;;;;;3.22;2.10;;;22.60;94.60;;;;;;5002580;28;20034;-71
2022/10/04 12:26:54;;;;;;;4.30;2.10;;;22.60;94.60;;;;;;5001134;28;20034;-68
2022/10/04 12:29:58;;;;;;;3.28;1.55;;;22.50;94.10;;;;;;4998505;28;20463;-70
2022/10/04 12:32:49;;;;;;;2.47;1.48;;;22.30;93.90;;;;;;4991882;28;20379;-71
2022/10/04 12:35:23;;;;;;;;;;;22.30;93.90;;;;;;4995583;28;20092;-69
2022/10/04 12:38:27;;;;;;;5.35;1.90;;;22.20;93.60;;;;;;4991014;28;19906;-68
2022/10/04 12:41:11;;;;;;;3.55;2.03;;;22.00;93.70;;;;;;5000074;28;20026;-69
2022/10/04 12:43:55;;;;;;;4.97;1.58;;;22.10;93.70;;;;;;5011426;28;20136;-70
2022/10/04 12:46:36;;;;;;;1.80;1.38;;;22.40;93.30;;;;;;5037709;28;20025;-70
2022/10/04 12:49:24;;;;;;;3.83;1.70;;;22.90;93.10;;;;;;5154453;27;19911;-70
2022/10/04 12:52:09;;;;;;;3.78;1.75;;;;;;;;;;5137161;27;20036;-68
2022/10/04 12:54:41;;;;;;;5.63;2.05;;;23.90;91.80;;;;;;5138685;27;20041;-69
2022/10/04 12:57:44;;;;;;;5.38;1.60;;;24.00;91.70;;;;;;5148396;27;20022;-69
2022/10/04 13:00:13;;;;;;;2.50;1.70;;;24.10;90.70;;;;;;5140751;27;20050;-70
2022/10/04 13:02:53;;;;;;;6.63;2.00;;;24.20;90.30;;;;;;5148400;27;20026;-70
2022/10/04 13:05:28;;;;;;;4.68;2.45;;;24.20;90.50;;;;;;5133277;27;20024;-69
2022/10/04 13:08:07;;;;;;;4.80;2.45;;;24.00;90.90;;;;;;5133163;27;20031;-70
2022/10/04 13:10:46;;;;;;;2.90;2.10;;;23.70;91.90;;;;;;5142937;27;20088;-70
2022/10/04 13:13:39;;;;;;;5.78;2.30;;;23.60;92.10;;;;;;5141101;27;20088;-69
2022/10/04 13:16:34;;;;;;;4.57;2.35;;;23.30;92.60;;;;;;5132572;27;20023;-69
2022/10/04 13:19:21;;;;;;;6.25;2.60;;;23.30;92.90;;;;;;5139325;27;20027;-68
2022/10/04 13:22:17;;;;;;;3.10;2.33;;;23.30;92.30;;;;;;5149525;27;20105;-69
2022/10/04 13:25:20;;;;;;;3.92;2.38;;;23.30;92.60;;;;;;5147124;27;20027;-68
2022/10/04 13:27:52;;;;;;;3.75;2.55;;;23.00;92.90;;;;;;5148952;27;20471;-68
2022/10/04 13:30:25;;;;;;;5.60;2.28;;;22.70;92.50;;;;;;5148338;27;20042;-68
2022/10/04 13:33:27;;;;;;;3.92;2.30;;;22.40;93.40;;;;;;5136008;27;20383;-67
2022/10/04 13:36:28;;;;;;;3.05;2.50;;;22.30;93.80;;;;;;5147426;27;20036;-67
2022/10/04 13:39:06;;;;;;;;;;;22.30;93.50;;;;;;5137214;27;20432;-68
2022/10/04 13:42:09;;;;;;;4.82;2.25;;;22.50;93.70;;;;;;5149018;27;19903;-68
2022/10/04 13:45:08;;;;;;;7.20;2.10;;;22.50;93.40;;;;;;5138735;27;20023;-68
2022/10/04 13:48:10;;;;;;;4.28;2.33;;;22.40;93.50;;;;;;5148516;27;20082;-68
2022/10/04 13:50:44;;;;;;;4.70;2.35;;;22.30;93.50;;;;;;5148238;27;20463;-69
2022/10/04 13:59:24;;;;;;;4.18;2.10;;;22.40;93.30;;;;;;5132099;27;19909;-68
2022/10/04 14:02:11;;;;;;;5.63;2.63;;;22.40;93.40;;;;;;5134793;27;20023;-68
2022/10/04 14:05:10;;;;;;;6.63;2.17;;;22.60;93.10;;;;;;5134447;27;20084;-69
2022/10/04 14:07:55;;;;;;;6.30;2.38;;;22.50;93.30;;;;;;5134733;27;20072;-68
2022/10/04 14:11:03;;;;;;;4.10;2.33;;;22.40;93.10;;;;;;5129143;27;20035;-73